Time;durP1;ratioP1;P1;durP2;ratioP2;P2;SDS_P1;SDS_P2;PMS_P1;PMS_P2;Temp;Humidity;BMP_temperature;BMP_pressure;BME280_temperature;BME280_humidity;BME280_pressure;Samples;Min_cycle;Max_cycle;Signal;HPM_P1;HPM_P2
2021/09/15 00:00:10;;;;;;;28.80;21.40;;;;;;;12.53;84.06;97633.79;116111;1184;60365;-74
2021/09/15 00:03:00;;;;;;;31.90;22.40;;;;;;;12.51;84.13;97636.64;116093;1185;72604;-75
2021/09/15 00:05:30;;;;;;;34.20;25.50;;;;;;;12.51;82.78;97634.98;116240;1179;68709;-75
2021/09/15 00:08:00;;;;;;;36.30;26.10;;;;;;;12.50;82.74;97637.00;116279;1179;68234;-75
2021/09/15 00:10:29;;;;;;;34.50;25.90;;;;;;;12.46;82.82;97635.52;116112;1179;60349;-74
2021/09/15 00:12:59;;;;;;;33.20;24.20;;;;;;;12.42;82.89;97638.45;116156;1184;60394;-74
2021/09/15 00:15:29;;;;;;;30.60;23.40;;;;;;;12.39;83.68;97636.95;116124;1185;71347;-75
2021/09/15 00:17:58;;;;;;;25.10;20.80;;;;;;;12.34;83.28;97639.50;116242;1181;68307;-75
2021/09/15 00:20:27;;;;;;;29.80;21.90;;;;;;;12.29;83.23;97636.16;116151;1185;70400;-76
2021/09/15 00:22:57;;;;;;;26.90;21.70;;;;;;;12.27;83.44;97640.77;116122;1183;60327;-75
2021/09/15 00:25:27;;;;;;;25.90;22.50;;;;;;;12.25;83.54;97642.57;116291;1179;60370;-71
2021/09/15 00:27:56;;;;;;;31.10;23.90;;;;;;;12.26;83.66;97644.05;116259;1185;72274;-72
2021/09/15 00:30:26;;;;;;;28.60;22.90;;;;;;;12.25;84.36;97644.39;116159;1184;69199;-70
2021/09/15 00:32:56;;;;;;;32.40;23.20;;;;;;;12.25;84.19;97647.59;116279;1179;69180;-72
2021/09/15 00:35:25;;;;;;;32.30;25.50;;;;;;;12.23;84.56;97644.86;116282;1180;60416;-70
2021/09/15 00:37:56;;;;;;;;;;;;;;;12.22;83.51;97646.89;116335;1179;60365;-75
2021/09/15 00:40:25;;;;;;;35.30;25.60;;;;;;;12.17;83.70;97646.01;116166;1179;72201;-74
2021/09/15 00:42:54;;;;;;;31.90;24.40;;;;;;;12.14;83.80;97645.95;116167;1181;67245;-74
2021/09/15 00:45:25;;;;;;;36.30;26.70;;;;;;;12.13;84.89;97649.39;116185;1182;69141;-75
2021/09/15 00:47:55;;;;;;;31.30;24.60;;;;;;;12.12;83.84;97646.67;116100;1185;60362;-74
2021/09/15 00:50:26;;;;;;;28.80;23.20;;;;;;;12.07;83.41;97647.61;116036;1182;60340;-72
2021/09/15 00:52:56;;;;;;;30.70;22.60;;;;;;;12.03;84.61;97646.46;116110;1185;72146;-74
2021/09/15 00:55:26;;;;;;;26.30;20.50;;;;;;;12.00;85.38;97645.13;116086;1185;68411;-74
2021/09/15 00:57:57;;;;;;;26.30;21.00;;;;;;;11.97;85.62;97643.46;116150;1179;69316;-73
2021/09/15 01:00:28;;;;;;;27.40;22.70;;;;;;;11.96;85.57;97643.02;115989;1185;60320;-72
2021/09/15 01:02:58;;;;;;;28.90;22.80;;;;;;;11.94;84.63;97645.69;116123;1182;60345;-70
2021/09/15 01:05:29;;;;;;;31.20;22.40;;;;;;;11.92;85.29;97646.56;116185;1185;70427;-74
2021/09/15 01:08:02;;;;;;;30.00;24.00;;;;;;;11.89;85.71;97645.48;116099;1182;68443;-74
2021/09/15 01:10:33;;;;;;;34.70;25.40;;;;;;;11.86;85.16;97652.22;116151;1179;69209;-74
2021/09/15 01:13:25;;;;;;;32.40;25.40;;;;;;;11.83;84.35;97653.42;116127;1180;60758;-73
2021/09/15 01:16:27;;;;;;;29.40;22.90;;;;;;;11.76;86.71;97651.29;115985;1180;60457;-74
2021/09/15 01:19:36;;;;;;;30.20;23.20;;;;;;;11.73;86.15;97647.66;116017;1185;72274;-74
2021/09/15 01:22:25;;;;;;;28.50;23.20;;;;;;;11.72;85.84;97644.93;116005;1185;69175;-72
2021/09/15 01:25:19;;;;;;;28.10;23.40;;;;;;;11.70;86.23;97643.09;116019;1185;68446;-74
2021/09/15 01:28:22;;;;;;;31.40;25.60;;;;;;;11.69;85.15;97644.64;116060;1185;60341;-75
2021/09/15 01:31:02;;;;;;;30.60;25.10;;;;;;;11.68;84.77;97645.23;116097;1180;60328;-74
2021/09/15 01:33:33;;;;;;;;;;;;;;;11.68;85.51;97647.13;116241;1185;71360;-73
2021/09/15 01:36:03;;;;;;;27.00;22.20;;;;;;;11.66;85.71;97648.59;116011;1183;68319;-74
2021/09/15 01:38:34;;;;;;;28.10;21.60;;;;;;;11.65;84.88;97649.41;116135;1184;69222;-73
2021/09/15 01:41:04;;;;;;;25.90;20.80;;;;;;;11.63;85.65;97647.23;116109;1182;60391;-74
2021/09/15 01:43:36;;;;;;;22.50;19.40;;;;;;;11.60;85.32;97646.70;116260;1181;60360;-73
2021/09/15 01:46:07;;;;;;;28.00;21.70;;;;;;;11.56;85.67;97647.33;116212;1182;72125;-72
2021/09/15 01:48:37;;;;;;;30.00;22.00;;;;;;;11.53;85.53;97643.23;116294;1184;68370;-74
2021/09/15 01:51:09;;;;;;;29.80;23.80;;;;;;;11.51;84.96;97645.42;116078;1185;69017;-75
2021/09/15 01:53:40;;;;;;;29.30;23.10;;;;;;;11.48;84.49;97639.14;116122;1184;60281;-72
2021/09/15 01:56:11;;;;;;;29.30;22.40;;;;;;;11.43;84.14;97641.84;116160;1184;60372;-73
2021/09/15 01:58:55;;;;;;;36.40;24.80;;;;;;;11.38;84.14;97641.11;116255;1180;71252;-73
2021/09/15 02:01:44;;;;;;;28.90;24.70;;;;;;;11.35;84.47;97639.55;116149;1180;69185;-73
2021/09/15 02:04:32;;;;;;;28.50;21.30;;;;;;;11.32;84.66;97638.51;116020;1183;69245;-74
2021/09/15 02:07:19;;;;;;;27.40;21.30;;;;;;;11.27;84.08;97637.45;116258;1184;60316;-70
2021/09/15 02:10:14;;;;;;;25.30;19.40;;;;;;;11.19;84.21;97638.71;116124;1182;60773;-72
2021/09/15 02:12:44;;;;;;;26.00;19.80;;;;;;;11.15;84.32;97628.61;116321;1179;71328;-73
2021/09/15 02:15:16;;;;;;;23.10;19.90;;;;;;;11.15;84.17;97630.77;116183;1181;68302;-73
2021/09/15 02:17:48;;;;;;;25.80;21.10;;;;;;;11.13;85.09;97630.80;116233;1179;69143;-74
2021/09/15 02:20:39;;;;;;;31.70;22.10;;;;;;;11.15;87.37;97630.85;115988;1184;60724;-74
2021/09/15 02:23:18;;;;;;;27.10;23.30;;;;;;;11.11;85.65;97625.85;116141;1185;60303;-74
2021/09/15 02:25:59;;;;;;;28.00;23.60;;;;;;;11.11;85.38;97630.78;116249;1179;71186;-74
2021/09/15 02:28:49;;;;;;;25.70;20.30;;;;;;;11.07;85.79;97627.89;116127;1184;69197;-75
2021/09/15 02:31:37;;;;;;;25.90;20.40;;;;;;;11.05;85.89;97626.67;116213;1183;69206;-74
2021/09/15 02:34:26;;;;;;;22.00;18.60;;;;;;;11.04;85.61;97632.09;116253;1185;60354;-73
2021/09/15 02:37:09;;;;;;;24.80;19.80;;;;;;;11.02;86.54;97629.69;116045;1182;60865;-74
2021/09/15 02:39:57;;;;;;;26.60;20.70;;;;;;;11.00;86.65;97631.58;116094;1181;72062;-73
2021/09/15 02:42:38;;;;;;;31.50;21.20;;;;;;;10.99;86.50;97632.25;116193;1184;67796;-73
2021/09/15 02:45:19;;;;;;;28.40;22.00;;;;;;;10.97;85.89;97631.83;115982;1182;69044;-73
2021/09/15 02:47:56;;;;;;;25.30;20.70;;;;;;;10.97;86.29;97641.64;116102;1185;60392;-72
2021/09/15 02:50:54;;;;;;;26.30;21.00;;;;;;;10.98;86.95;97640.20;116168;1182;60350;-73
2021/09/15 02:53:33;;;;;;;30.80;22.00;;;;;;;10.96;86.86;97639.04;116015;1185;72051;-73
2021/09/15 02:56:26;;;;;;;33.40;25.50;;;;;;;10.96;86.11;97641.84;116068;1184;68993;-74
2021/09/15 02:59:08;;;;;;;34.40;26.80;;;;;;;10.96;85.56;97640.88;116247;1185;68241;-69
2021/09/15 03:01:53;;;;;;;29.10;23.70;;;;;;;10.97;86.27;97639.73;116254;1184;60333;-74
2021/09/15 03:04:49;;;;;;;28.60;22.90;;;;;;;10.93;85.05;97645.92;116103;1185;60359;-73
2021/09/15 03:07:38;;;;;;;33.50;23.50;;;;;;;10.89;85.12;97648.33;116203;1179;71204;-72
2021/09/15 03:10:09;;;;;;;30.70;23.10;;;;;;;10.87;85.08;97652.91;116178;1180;68398;-70
2021/09/15 03:12:39;;;;;;;34.50;24.90;;;;;;;10.84;85.94;97655.59;115945;1185;69466;-73
2021/09/15 03:15:09;;;;;;;33.20;25.10;;;;;;;10.82;85.62;97657.73;116249;1184;60375;-73
2021/09/15 03:17:39;;;;;;;31.20;23.80;;;;;;;10.77;85.79;97651.60;116250;1183;60316;-73
2021/09/15 03:20:10;;;;;;;30.10;24.20;;;;;;;10.70;86.11;97653.03;116206;1184;72289;-73
2021/09/15 03:22:39;;;;;;;38.90;23.80;;;;;;;10.59;86.16;97652.31;116256;1179;70322;-73
2021/09/15 03:25:10;;;;;;;35.10;25.30;;;;;;;10.49;86.40;97659.98;116090;1182;68676;-73
2021/09/15 03:27:39;;;;;;;32.10;27.00;;;;;;;10.45;86.66;97656.23;116149;1185;60325;-73
2021/09/15 03:30:09;;;;;;;31.60;24.10;;;;;;;10.43;86.79;97656.20;116243;1185;60387;-73
2021/09/15 03:32:38;;;;;;;28.10;23.90;;;;;;;10.43;86.96;97660.48;116211;1179;71386;-73
2021/09/15 03:35:09;;;;;;;29.70;24.10;;;;;;;10.43;86.54;97662.29;116225;1180;69549;-73
2021/09/15 03:37:39;;;;;;;36.80;27.90;;;;;;;10.43;87.23;97665.29;116112;1184;69343;-72
2021/09/15 03:40:10;;;;;;;30.00;23.10;;;;;;;10.45;86.84;97668.41;116201;1185;60367;-72
2021/09/15 03:42:39;;;;;;;29.30;23.90;;;;;;;10.46;87.57;97667.50;116267;1179;60479;-73
2021/09/15 03:45:09;;;;;;;28.30;23.30;;;;;;;10.44;87.19;97663.38;116168;1184;71335;-74
2021/09/15 03:47:40;;;;;;;31.30;21.30;;;;;;;10.43;87.13;97662.12;116366;1179;70750;-71
2021/09/15 03:50:10;;;;;;;27.20;23.50;;;;;;;10.44;88.25;97666.05;116261;1179;68412;-73
2021/09/15 03:52:40;;;;;;;27.20;22.90;;;;;;;10.43;88.40;97663.23;116386;1180;60322;-73
2021/09/15 03:55:10;;;;;;;32.80;23.50;;;;;;;10.45;88.27;97668.96;116241;1183;60390;-74
2021/09/15 03:57:40;;;;;;;33.30;25.50;;;;;;;10.45;88.71;97666.98;116245;1180;72120;-74
2021/09/15 04:00:10;;;;;;;30.10;24.30;;;;;;;10.47;88.21;97668.66;116000;1184;69163;-73
2021/09/15 04:02:43;;;;;;;29.40;22.80;;;;;;;10.50;88.23;97670.25;116014;1183;69262;-72
2021/09/15 04:05:17;;;;;;;29.20;23.60;;;;;;;10.50;88.22;97672.47;116211;1183;60352;-73
2021/09/15 04:07:47;;;;;;;33.60;22.20;;;;;;;10.47;87.51;97672.20;116129;1182;60353;-73
2021/09/15 04:10:16;;;;;;;30.10;21.30;;;;;;;10.43;86.91;97669.71;116153;1184;72196;-73
2021/09/15 04:12:46;;;;;;;26.50;20.40;;;;;;;10.41;86.77;97668.42;116098;1182;67342;-74
2021/09/15 04:15:17;;;;;;;29.00;23.80;;;;;;;10.40;86.42;97668.19;116234;1183;69204;-74
2021/09/15 04:17:46;;;;;;;41.00;24.60;;;;;;;10.40;86.35;97669.46;116289;1184;60314;-74
2021/09/15 04:20:15;;;;;;;38.20;26.60;;;;;;;10.40;85.97;97672.06;116228;1183;60340;-73
2021/09/15 04:22:45;;;;;;;115.20;65.70;;;;;;;10.44;85.73;97669.30;116169;1185;71194;-71
2021/09/15 04:33:42;;;;;;;63.70;41.60;;;;;;;10.74;85.31;97674.70;116242;1185;60292;-72
2021/09/15 04:36:11;;;;;;;55.20;35.70;;;;;;;10.84;85.85;97676.89;116115;1179;71413;-73
2021/09/15 04:38:40;;;;;;;44.90;30.50;;;;;;;10.93;85.45;97680.92;116087;1182;68311;-74
2021/09/15 04:41:12;;;;;;;30.00;21.50;;;;;;;10.99;85.30;97685.93;116154;1181;67411;-71
2021/09/15 04:43:42;;;;;;;27.40;20.10;;;;;;;11.01;84.45;97687.36;116306;1179;60310;-74
2021/09/15 04:46:11;;;;;;;28.60;21.60;;;;;;;11.05;84.58;97689.08;116188;1179;60348;-75
2021/09/15 04:48:40;;;;;;;29.50;22.50;;;;;;;11.13;84.74;97693.36;116222;1184;72258;-73
2021/09/15 04:51:12;;;;;;;29.30;20.70;;;;;;;11.27;84.39;97696.71;116020;1182;69222;-73
2021/09/15 04:53:44;;;;;;;27.10;19.30;;;;;;;11.47;84.34;97695.18;115974;1182;68241;-74
2021/09/15 04:56:13;;;;;;;22.30;18.70;;;;;;;11.73;84.13;97699.27;116154;1185;60371;-71
2021/09/15 04:58:42;;;;;;;21.40;17.40;;;;;;;12.00;83.32;97700.80;116019;1182;60336;-74
2021/09/15 05:01:11;;;;;;;21.00;16.10;;;;;;;12.30;82.72;97708.64;116232;1183;71396;-74
2021/09/15 05:03:41;;;;;;;40.20;24.40;;;;;;;12.62;82.40;97709.23;116096;1180;68225;-74
2021/09/15 05:06:10;;;;;;;42.60;24.70;;;;;;;12.94;81.95;97706.61;116168;1185;69222;-74
2021/09/15 05:08:39;;;;;;;45.40;22.30;;;;;;;13.26;80.42;97707.90;116019;1184;60374;-71
2021/09/15 05:11:09;;;;;;;33.90;18.90;;;;;;;13.44;77.05;97708.00;116083;1185;60374;-74
2021/09/15 05:13:40;;;;;;;30.70;18.50;;;;;;;13.71;78.95;97712.27;116143;1184;71976;-73
2021/09/15 05:16:09;;;;;;;31.40;17.50;;;;;;;13.84;78.31;97712.79;116104;1184;68366;-74
2021/09/15 05:18:38;;;;;;;35.80;16.50;;;;;;;13.97;77.85;97717.60;116151;1183;69048;-73
2021/09/15 05:21:08;;;;;;;;;;;;;;;14.04;76.40;97715.66;116121;1182;60377;-72
2021/09/15 05:23:37;;;;;;;25.30;18.60;;;;;;;14.30;76.39;97722.64;116109;1184;60752;-75
2021/09/15 05:26:07;;;;;;;31.10;21.00;;;;;;;14.64;76.45;97717.77;116057;1181;72003;-74
2021/09/15 05:28:36;;;;;;;45.80;21.10;;;;;;;14.77;75.66;97717.66;116210;1179;69308;-71
2021/09/15 05:31:05;;;;;;;34.30;22.00;;;;;;;14.78;75.63;97719.67;116196;1182;68697;-72
2021/09/15 05:33:34;;;;;;;31.20;22.00;;;;;;;14.68;74.64;97725.04;116071;1184;60335;-72
2021/09/15 05:36:04;;;;;;;40.30;20.60;;;;;;;14.62;74.43;97724.15;116082;1184;60334;-74
2021/09/15 05:38:34;;;;;;;36.90;20.70;;;;;;;14.58;74.51;97726.80;116156;1185;72032;-70
2021/09/15 05:41:18;;;;;;;33.40;19.70;;;;;;;14.50;74.27;97729.00;116219;1179;67359;-70
2021/09/15 05:43:47;;;;;;;28.40;20.20;;;;;;;14.67;74.28;97727.91;115938;1181;68483;-74
2021/09/15 05:46:17;;;;;;;37.00;20.30;;;;;;;15.02;74.82;97730.61;115990;1181;60333;-74
2021/09/15 05:48:48;;;;;;;35.70;18.50;;;;;;;15.37;73.30;97732.12;116042;1183;60359;-74
2021/09/15 05:51:17;;;;;;;20.40;15.20;;;;;;;15.68;72.22;97734.30;116050;1185;71257;-74
2021/09/15 05:53:48;;;;;;;25.50;16.00;;;;;;;16.03;71.85;97734.98;116065;1183;68970;-72
2021/09/15 05:56:17;;;;;;;24.30;15.50;;;;;;;16.21;70.49;97733.66;115949;1182;67293;-70
2021/09/15 05:58:47;;;;;;;25.20;15.90;;;;;;;16.44;69.87;97728.16;116009;1182;60808;-72
2021/09/15 06:01:16;;;;;;;24.50;14.60;;;;;;;16.83;69.28;97723.79;116012;1180;60397;-73
2021/09/15 06:03:46;;;;;;;20.00;13.40;;;;;;;17.11;67.94;97718.68;116051;1185;72161;-74
2021/09/15 06:06:33;;;;;;;18.70;13.60;;;;;;;17.43;66.95;97719.72;115905;1185;69278;-73
2021/09/15 06:09:10;;;;;;;21.90;13.60;;;;;;;17.49;66.66;97720.70;116007;1185;68235;-72
2021/09/15 06:11:40;;;;;;;25.40;15.60;;;;;;;17.59;66.09;97721.61;115933;1185;60315;-71
2021/09/15 06:14:09;;;;;;;29.20;15.60;;;;;;;17.91;66.09;97726.73;115945;1185;60295;-72
2021/09/15 06:16:38;;;;;;;23.60;12.60;;;;;;;18.15;65.61;97730.31;116058;1182;71195;-71
2021/09/15 06:19:08;;;;;;;21.30;13.90;;;;;;;18.42;63.75;97732.54;115851;1182;68988;-68
2021/09/15 06:21:56;;;;;;;17.20;12.40;;;;;;;18.78;62.44;97726.94;116000;1185;69965;-70
2021/09/15 06:24:56;;;;;;;18.60;12.60;;;;;;;19.18;61.32;97724.36;115977;1182;60373;-74
2021/09/15 06:27:28;;;;;;;18.40;12.20;;;;;;;19.59;60.18;97719.93;115983;1182;60788;-71
2021/09/15 06:29:57;;;;;;;18.20;13.00;;;;;;;19.97;59.75;97723.66;116022;1185;71201;-76
2021/09/15 06:32:27;;;;;;;18.70;12.30;;;;;;;20.57;59.26;97727.05;116075;1184;69140;-71
2021/09/15 06:34:56;;;;;;;26.50;12.40;;;;;;;20.78;56.90;97727.75;115971;1185;68466;-69
2021/09/15 06:37:26;;;;;;;19.20;11.90;;;;;;;21.01;56.90;97721.89;116002;1184;60308;-73
2021/09/15 06:39:54;;;;;;;16.00;11.50;;;;;;;21.03;56.50;97729.02;115884;1184;60285;-72
2021/09/15 06:42:24;;;;;;;18.40;11.60;;;;;;;20.75;57.02;97727.11;116111;1180;71320;-69
2021/09/15 06:44:53;;;;;;;16.50;12.10;;;;;;;20.91;57.15;97729.21;116193;1184;68425;-73
2021/09/15 06:47:22;;;;;;;21.50;10.90;;;;;;;21.41;56.32;97728.84;116134;1184;68622;-75
2021/09/15 06:49:52;;;;;;;27.70;11.00;;;;;;;21.60;54.84;97725.70;115994;1181;60387;-70
2021/09/15 06:52:22;;;;;;;21.00;12.00;;;;;;;21.47;55.38;97725.24;116195;1183;60365;-73
2021/09/15 06:54:51;;;;;;;;;;;;;;;21.58;54.68;97724.20;116079;1184;71220;-72
2021/09/15 06:57:21;;;;;;;18.30;10.20;;;;;;;21.33;55.28;97723.85;116172;1183;67382;-77
2021/09/15 06:59:51;;;;;;;20.10;10.00;;;;;;;21.09;55.08;97726.23;116012;1182;68238;-70
2021/09/15 07:02:20;;;;;;;12.20;9.20;;;;;;;20.91;55.69;97732.89;116161;1182;60378;-78
2021/09/15 07:04:49;;;;;;;12.00;8.90;;;;;;;21.09;55.34;97731.81;116183;1184;60768;-71
2021/09/15 07:07:18;;;;;;;15.20;9.50;;;;;;;21.48;54.67;97730.71;116148;1179;71367;-71
2021/09/15 07:09:47;;;;;;;14.50;8.90;;;;;;;21.40;53.82;97733.03;116149;1179;68966;-75
2021/09/15 07:12:17;;;;;;;13.60;9.00;;;;;;;21.24;55.03;97729.70;116082;1183;68391;-78
2021/09/15 07:14:46;;;;;;;15.90;9.10;;;;;;;21.34;54.82;97730.21;116153;1181;60361;-77
2021/09/15 07:17:15;;;;;;;12.20;9.10;;;;;;;21.72;53.26;97728.14;116162;1184;60369;-71
2021/09/15 07:19:44;;;;;;;10.70;9.00;;;;;;;21.56;54.07;97731.47;116171;1179;71924;-71
2021/09/15 07:22:13;;;;;;;13.20;8.90;;;;;;;21.91;53.02;97733.19;116061;1179;69144;-73
2021/09/15 07:24:42;;;;;;;11.60;7.90;;;;;;;22.63;52.36;97731.44;116146;1183;69320;-75
2021/09/15 07:27:11;;;;;;;15.60;9.20;;;;;;;23.07;50.72;97733.90;116156;1184;60285;-71
2021/09/15 07:29:40;;;;;;;15.00;9.80;;;;;;;23.25;50.16;97730.76;116183;1184;60299;-70
2021/09/15 07:32:27;;;;;;;15.30;9.10;;;;;;;23.16;49.81;97732.23;116159;1183;71186;-71
2021/09/15 07:34:56;;;;;;;14.70;9.10;;;;;;;23.35;49.24;97726.92;116134;1183;68517;-70
2021/09/15 07:37:25;;;;;;;11.80;8.80;;;;;;;23.52;49.07;97725.52;116163;1179;69266;-74
2021/09/15 07:39:54;;;;;;;15.30;9.20;;;;;;;23.91;48.43;97729.52;116142;1184;60368;-73
2021/09/15 07:42:24;;;;;;;14.40;9.40;;;;;;;24.03;47.49;97728.84;116180;1183;60285;-71
2021/09/15 07:44:53;;;;;;;12.90;9.40;;;;;;;23.90;47.52;97728.22;116019;1182;72200;-72
2021/09/15 07:47:22;;;;;;;15.60;9.60;;;;;;;23.91;48.07;97730.35;116202;1180;69022;-70
2021/09/15 07:49:51;;;;;;;18.20;9.70;;;;;;;24.29;47.07;97729.91;116158;1179;68420;-78
2021/09/15 07:52:20;;;;;;;12.30;9.20;;;;;;;24.86;46.16;97729.98;116192;1184;60283;-74
2021/09/15 07:54:49;;;;;;;12.20;8.40;;;;;;;25.10;45.09;97727.31;116088;1184;60402;-73
2021/09/15 07:57:20;;;;;;;12.80;9.80;;;;;;;25.22;44.21;97729.09;116190;1179;71175;-73
2021/09/15 07:59:49;;;;;;;13.80;8.70;;;;;;;25.02;45.11;97725.23;116181;1184;68533;-73
2021/09/15 08:02:18;;;;;;;13.60;9.20;;;;;;;25.21;44.96;97724.83;116151;1179;68213;-74
2021/09/15 08:04:47;;;;;;;12.60;9.00;;;;;;;25.97;43.99;97732.52;116177;1178;60335;-71
2021/09/15 08:07:16;;;;;;;16.20;10.10;;;;;;;26.58;42.31;97729.73;116016;1184;60380;-72
2021/09/15 08:09:45;;;;;;;13.30;9.40;;;;;;;26.72;41.15;97727.14;116209;1181;71354;-71
2021/09/15 08:12:14;;;;;;;11.10;8.20;;;;;;;26.43;41.44;97731.73;116101;1184;69157;-74
2021/09/15 08:14:43;;;;;;;11.50;7.90;;;;;;;26.88;40.83;97729.67;116140;1179;69265;-71
2021/09/15 08:17:12;;;;;;;13.70;7.80;;;;;;;26.96;40.20;97727.30;116151;1180;60363;-78
2021/09/15 08:19:41;;;;;;;9.20;7.80;;;;;;;27.18;39.65;97726.48;116148;1179;60347;-73
2021/09/15 08:22:10;;;;;;;14.80;8.60;;;;;;;27.60;39.27;97727.61;116047;1184;71975;-72
2021/09/15 08:24:39;;;;;;;13.30;8.70;;;;;;;27.91;38.60;97725.70;116182;1180;69146;-74
2021/09/15 08:27:08;;;;;;;10.40;7.30;;;;;;;27.84;37.99;97725.30;116049;1179;69225;-74
2021/09/15 08:29:37;;;;;;;11.30;8.70;;;;;;;27.47;38.74;97721.91;116093;1179;60390;-74
2021/09/15 08:32:07;;;;;;;12.70;8.10;;;;;;;27.25;39.11;97718.11;116140;1183;60353;-71
2021/09/15 08:34:37;;;;;;;12.90;8.40;;;;;;;27.68;38.75;97718.99;116050;1182;72180;-74
2021/09/15 08:37:06;;;;;;;13.30;8.70;;;;;;;27.70;38.12;97715.92;116220;1183;69029;-73
2021/09/15 08:39:35;;;;;;;11.60;7.80;;;;;;;27.81;37.36;97711.65;116146;1179;69220;-70
2021/09/15 08:42:05;;;;;;;12.60;8.40;;;;;;;28.14;36.88;97711.67;116143;1184;60365;-71
2021/09/15 08:44:34;;;;;;;11.70;8.20;;;;;;;28.22;36.92;97708.84;116159;1184;59217;-70
2021/09/15 08:47:06;;;;;;;16.80;7.90;;;;;;;28.10;37.09;97709.48;116128;1184;72216;-70
2021/09/15 08:49:36;;;;;;;11.90;7.90;;;;;;;28.53;36.17;97709.52;116173;1183;68470;-71
2021/09/15 08:52:05;;;;;;;12.60;7.90;;;;;;;28.44;36.26;97708.99;116141;1183;68234;-70
2021/09/15 08:54:34;;;;;;;13.50;9.00;;;;;;;29.09;35.40;97706.42;116125;1179;60317;-70
2021/09/15 08:57:03;;;;;;;11.60;8.80;;;;;;;29.31;35.04;97707.20;116158;1179;60325;-72
2021/09/15 08:59:32;;;;;;;14.90;9.50;;;;;;;29.16;34.73;97703.58;116198;1184;71498;-72
2021/09/15 09:02:10;;;;;;;12.80;8.40;;;;;;;29.25;34.68;97701.31;116052;1184;69595;-69
2021/09/15 09:04:57;;;;;;;11.30;8.20;;;;;;;29.35;34.05;97698.83;116128;1184;69892;-71
2021/09/15 09:07:28;;;;;;;11.70;7.50;;;;;;;29.60;33.65;97698.58;116092;1184;60391;-72
2021/09/15 09:10:05;;;;;;;10.80;7.90;;;;;;;30.16;33.45;97696.57;115976;1180;60369;-73
2021/09/15 09:12:37;;;;;;;11.30;7.90;;;;;;;30.61;32.74;97697.27;115992;1181;72163;-70
2021/09/15 09:15:27;;;;;;;14.10;9.00;;;;;;;30.80;32.33;97691.60;116079;1183;69815;-74
2021/09/15 09:18:15;;;;;;;12.60;8.00;;;;;;;31.27;31.67;97693.76;116090;1179;68212;-74
2021/09/15 09:20:44;;;;;;;15.50;9.40;;;;;;;31.65;31.30;97685.35;116155;1178;60325;-74
2021/09/15 09:23:39;;;;;;;23.80;10.30;;;;;;;31.94;30.38;97681.95;116158;1183;60378;-74
2021/09/15 09:26:08;;;;;;;19.80;11.00;;;;;;;31.92;30.55;97679.52;116162;1183;71227;-72
2021/09/15 09:28:43;;;;;;;13.70;9.80;;;;;;;31.87;30.56;97678.00;116132;1183;69166;-70
2021/09/15 09:31:12;;;;;;;13.80;11.00;;;;;;;31.77;30.23;97673.89;116158;1182;68270;-71
2021/09/15 09:33:47;;;;;;;20.60;10.60;;;;;;;31.79;30.20;97672.56;116112;1184;60369;-76
2021/09/15 09:36:17;;;;;;;16.30;11.40;;;;;;;31.99;30.53;97669.92;116193;1183;60321;-76
2021/09/15 09:38:46;;;;;;;14.90;10.90;;;;;;;31.87;30.05;97669.86;116174;1183;72183;-74
2021/09/15 09:41:20;;;;;;;18.10;11.20;;;;;;;31.62;30.59;97666.20;116112;1183;69212;-69
2021/09/15 09:43:55;;;;;;;19.20;10.60;;;;;;;32.03;30.39;97666.11;116064;1179;69019;-75
2021/09/15 09:46:35;;;;;;;21.10;12.50;;;;;;;32.41;29.61;97665.12;116058;1184;60334;-72
2021/09/15 09:49:14;;;;;;;14.70;10.90;;;;;;;32.48;29.25;97661.02;116043;1181;60419;-69
2021/09/15 09:51:45;;;;;;;12.40;9.80;;;;;;;32.42;28.24;97664.47;115949;1184;72165;-71
2021/09/15 09:54:25;;;;;;;12.50;10.20;;;;;;;31.65;29.83;97660.89;116083;1184;67595;-73
2021/09/15 09:56:58;;;;;;;18.40;10.80;;;;;;;31.71;29.35;97659.88;116054;1184;68427;-75
2021/09/15 09:59:27;;;;;;;17.90;8.70;;;;;;;31.86;29.23;97650.80;116104;1182;60333;-75
2021/09/15 10:01:57;;;;;;;;;;;;;;;31.76;29.30;97653.55;116026;1184;60350;-73
2021/09/15 10:04:29;;;;;;;13.20;9.20;;;;;;;32.15;28.49;97652.72;116086;1179;72157;-70
2021/09/15 10:07:01;;;;;;;12.50;8.40;;;;;;;31.73;28.78;97648.51;116059;1184;69433;-72
2021/09/15 10:09:31;;;;;;;13.20;8.80;;;;;;;32.10;28.15;97648.85;115999;1182;69423;-75
2021/09/15 10:12:01;;;;;;;9.50;6.40;;;;;;;32.22;27.77;97648.48;116061;1184;60381;-75
2021/09/15 10:14:30;;;;;;;12.70;6.80;;;;;;;32.64;26.97;97646.05;116092;1181;60365;-70
2021/09/15 10:17:22;;;;;;;10.70;7.10;;;;;;;32.57;26.89;97644.89;116054;1181;71338;-70
2021/09/15 10:19:54;;;;;;;11.80;8.60;;;;;;;32.66;26.84;97644.83;115921;1182;68428;-70
2021/09/15 10:22:34;;;;;;;16.60;8.60;;;;;;;32.98;26.63;97643.79;116065;1184;69025;-79
2021/09/15 10:25:06;;;;;;;14.40;8.10;;;;;;;33.12;26.53;97637.98;115863;1182;60376;-74
2021/09/15 10:28:06;;;;;;;11.40;8.70;;;;;;;33.22;26.57;97638.02;116096;1181;60355;-76
2021/09/15 10:30:44;;;;;;;12.90;7.80;;;;;;;33.01;26.69;97637.71;116122;1184;72038;-72
2021/09/15 10:33:35;;;;;;;15.40;9.40;;;;;;;33.37;26.82;97634.45;116078;1184;68374;-73
2021/09/15 10:36:16;;;;;;;14.30;8.90;;;;;;;32.79;26.42;97633.52;116110;1182;69269;-69
2021/09/15 10:38:53;;;;;;;14.70;9.20;;;;;;;32.70;26.69;97630.84;116033;1182;60339;-71
2021/09/15 10:41:31;;;;;;;13.10;9.80;;;;;;;33.24;25.92;97632.37;116057;1184;60784;-79
2021/09/15 10:44:14;;;;;;;13.00;8.80;;;;;;;33.42;25.37;97632.83;116168;1183;72224;-70
2021/09/15 10:46:45;;;;;;;9.20;6.80;;;;;;;32.98;26.00;97630.90;116125;1179;69234;-74
2021/09/15 10:49:23;;;;;;;10.30;6.50;;;;;;;33.60;25.11;97626.36;116176;1182;69037;-77
2021/09/15 10:52:12;;;;;;;10.80;6.80;;;;;;;33.61;23.82;97624.45;116134;1179;60722;-72
2021/09/15 10:54:41;;;;;;;;;;;;;;;34.01;24.06;97623.52;116092;1183;60327;-71
2021/09/15 10:57:21;;;;;;;;;;;;;;;34.55;24.32;97623.29;116210;1179;71216;-71
2021/09/15 10:59:57;;;;;;;12.80;6.60;;;;;;;34.80;23.28;97620.48;116147;1179;69033;-71
2021/09/15 11:02:35;;;;;;;7.70;5.90;;;;;;;34.95;22.87;97616.33;116105;1179;68627;-71
2021/09/15 11:05:27;;;;;;;8.20;5.80;;;;;;;35.49;22.41;97616.05;116177;1180;60389;-72
2021/09/15 11:07:57;;;;;;;8.60;5.90;;;;;;;34.98;22.40;97615.42;116128;1183;60354;-74
2021/09/15 11:10:33;;;;;;;6.60;5.00;;;;;;;35.81;22.13;97611.17;116153;1183;72172;-70
2021/09/15 11:13:11;;;;;;;9.60;5.40;;;;;;;36.11;20.63;97608.69;116140;1183;68840;-71
2021/09/15 11:15:46;;;;;;;8.30;5.90;;;;;;;36.13;20.55;97606.64;116158;1181;69885;-74
2021/09/15 11:18:27;;;;;;;7.80;5.70;;;;;;;36.69;20.51;97604.39;116176;1182;60368;-72
2021/09/15 11:21:02;;;;;;;6.70;5.00;;;;;;;36.40;20.19;97599.95;116170;1179;60350;-71
2021/09/15 11:23:32;;;;;;;6.60;5.10;;;;;;;36.09;19.32;97595.04;116144;1183;71355;-71
2021/09/15 11:26:04;;;;;;;5.90;4.30;;;;;;;36.14;18.70;97593.81;116172;1181;69042;-70
2021/09/15 11:28:34;;;;;;;7.20;4.70;;;;;;;36.18;19.58;97590.00;116118;1183;69260;-78
2021/09/15 11:31:04;;;;;;;9.10;5.60;;;;;;;36.71;20.09;97590.29;116168;1183;60314;-71
2021/09/15 11:33:35;;;;;;;6.70;5.00;;;;;;;37.25;19.73;97583.67;116119;1182;60377;-73
2021/09/15 11:36:07;;;;;;;6.70;4.90;;;;;;;36.68;20.07;97581.44;116208;1182;72785;-71
2021/09/15 11:38:41;;;;;;;8.50;5.80;;;;;;;36.37;19.86;97582.72;116082;1179;69148;-77
2021/09/15 11:41:15;;;;;;;9.90;6.60;;;;;;;34.72;21.61;97582.80;116124;1179;68471;-72
2021/09/15 11:43:46;;;;;;;8.50;6.00;;;;;;;34.34;22.49;97581.31;116210;1179;60369;-71
2021/09/15 11:46:18;;;;;;;8.30;5.80;;;;;;;34.36;24.18;97574.56;116220;1183;60344;-72
2021/09/15 11:48:47;;;;;;;7.80;5.90;;;;;;;34.14;24.52;97571.79;116183;1183;71230;-72
2021/09/15 11:51:23;;;;;;;8.60;5.90;;;;;;;33.57;24.63;97569.14;116180;1182;69174;-76